sensor_id;sensor_type;location;lat;lon;timestamp;P1;durP1;ratioP1;P2;durP2;ratioP2
26335;SDS011;14047;50.936;4.654;2024-01-10T00:01:42;13.95;;;4.28;;
26335;SDS011;14047;50.936;4.654;2024-01-10T00:04:08;12.57;;;3.80;;
26335;SDS011;14047;50.936;4.654;2024-01-10T00:06:34;11.95;;;4.43;;
26335;SDS011;14047;50.936;4.654;2024-01-10T00:09:00;7.93;;;4.35;;
26335;SDS011;14047;50.936;4.654;2024-01-10T00:11:26;7.75;;;4.05;;
26335;SDS011;14047;50.936;4.654;2024-01-10T00:13:52;13.48;;;4.75;;
26335;SDS011;14047;50.936;4.654;2024-01-10T00:16:18;10.27;;;4.22;;
26335;SDS011;14047;50.936;4.654;2024-01-10T00:18:43;13.02;;;4.38;;
26335;SDS011;14047;50.936;4.654;2024-01-10T00:21:10;5.85;;;3.50;;
26335;SDS011;14047;50.936;4.654;2024-01-10T00:23:36;12.40;;;4.90;;
26335;SDS011;14047;50.936;4.654;2024-01-10T00:26:02;14.63;;;4.38;;
26335;SDS011;14047;50.936;4.654;2024-01-10T00:28:28;11.07;;;4.90;;
26335;SDS011;14047;50.936;4.654;2024-01-10T00:30:54;8.38;;;5.10;;
26335;SDS011;14047;50.936;4.654;2024-01-10T00:33:20;10.50;;;4.30;;
26335;SDS011;14047;50.936;4.654;2024-01-10T00:35:46;11.27;;;4.47;;
26335;SDS011;14047;50.936;4.654;2024-01-10T00:38:13;10.18;;;4.60;;
26335;SDS011;14047;50.936;4.654;2024-01-10T00:40:38;7.57;;;3.95;;
26335;SDS011;14047;50.936;4.654;2024-01-10T00:43:04;8.88;;;4.35;;
26335;SDS011;14047;50.936;4.654;2024-01-10T00:45:30;12.50;;;4.55;;
26335;SDS011;14047;50.936;4.654;2024-01-10T00:47:56;12.10;;;4.60;;
26335;SDS011;14047;50.936;4.654;2024-01-10T00:50:23;9.90;;;4.45;;
26335;SDS011;14047;50.936;4.654;2024-01-10T00:52:49;12.85;;;4.43;;
26335;SDS011;14047;50.936;4.654;2024-01-10T00:55:14;13.80;;;4.82;;
26335;SDS011;14047;50.936;4.654;2024-01-10T00:57:40;6.50;;;4.05;;
26335;SDS011;14047;50.936;4.654;2024-01-10T01:00:07;8.88;;;4.13;;
26335;SDS011;14047;50.936;4.654;2024-01-10T01:02:34;13.20;;;3.72;;
26335;SDS011;14047;50.936;4.654;2024-01-10T01:05:01;14.65;;;4.63;;
26335;SDS011;14047;50.936;4.654;2024-01-10T01:07:28;10.60;;;4.43;;
26335;SDS011;14047;50.936;4.654;2024-01-10T01:09:53;12.07;;;4.63;;
26335;SDS011;14047;50.936;4.654;2024-01-10T01:12:19;11.20;;;4.97;;
26335;SDS011;14047;50.936;4.654;2024-01-10T01:14:45;13.52;;;4.90;;
26335;SDS011;14047;50.936;4.654;2024-01-10T01:17:12;10.98;;;4.00;;
26335;SDS011;14047;50.936;4.654;2024-01-10T01:19:38;10.57;;;4.45;;
26335;SDS011;14047;50.936;4.654;2024-01-10T01:22:04;9.60;;;4.10;;
26335;SDS011;14047;50.936;4.654;2024-01-10T01:24:30;11.43;;;4.45;;
26335;SDS011;14047;50.936;4.654;2024-01-10T01:26:55;8.23;;;4.47;;
26335;SDS011;14047;50.936;4.654;2024-01-10T01:29:21;10.38;;;4.45;;
26335;SDS011;14047;50.936;4.654;2024-01-10T01:31:48;9.90;;;4.50;;
26335;SDS011;14047;50.936;4.654;2024-01-10T01:34:14;9.45;;;3.92;;
26335;SDS011;14047;50.936;4.654;2024-01-10T01:36:40;11.40;;;4.80;;
26335;SDS011;14047;50.936;4.654;2024-01-10T01:39:06;13.27;;;5.28;;
26335;SDS011;14047;50.936;4.654;2024-01-10T01:41:32;10.73;;;4.82;;
26335;SDS011;14047;50.936;4.654;2024-01-10T01:43:58;8.90;;;4.70;;
26335;SDS011;14047;50.936;4.654;2024-01-10T01:46:24;11.35;;;4.30;;
26335;SDS011;14047;50.936;4.654;2024-01-10T01:48:50;13.25;;;4.38;;
26335;SDS011;14047;50.936;4.654;2024-01-10T01:51:17;12.65;;;4.20;;
26335;SDS011;14047;50.936;4.654;2024-01-10T01:53:47;9.82;;;4.25;;
26335;SDS011;14047;50.936;4.654;2024-01-10T01:56:15;10.95;;;4.80;;
26335;SDS011;14047;50.936;4.654;2024-01-10T01:58:42;8.50;;;4.60;;
26335;SDS011;14047;50.936;4.654;2024-01-10T02:01:09;9.48;;;4.05;;
26335;SDS011;14047;50.936;4.654;2024-01-10T02:03:36;9.75;;;4.32;;
26335;SDS011;14047;50.936;4.654;2024-01-10T02:06:02;14.18;;;4.40;;
26335;SDS011;14047;50.936;4.654;2024-01-10T02:08:29;10.30;;;4.40;;
26335;SDS011;14047;50.936;4.654;2024-01-10T02:10:57;12.30;;;4.97;;
26335;SDS011;14047;50.936;4.654;2024-01-10T02:13:23;10.30;;;3.65;;
26335;SDS011;14047;50.936;4.654;2024-01-10T02:15:49;8.63;;;4.45;;
26335;SDS011;14047;50.936;4.654;2024-01-10T02:18:16;7.40;;;4.35;;
26335;SDS011;14047;50.936;4.654;2024-01-10T02:20:43;14.88;;;4.68;;
26335;SDS011;14047;50.936;4.654;2024-01-10T02:23:10;8.98;;;4.03;;
26335;SDS011;14047;50.936;4.654;2024-01-10T02:25:36;10.52;;;5.05;;
26335;SDS011;14047;50.936;4.654;2024-01-10T02:28:03;7.50;;;3.50;;
26335;SDS011;14047;50.936;4.654;2024-01-10T02:30:29;10.75;;;3.85;;
26335;SDS011;14047;50.936;4.654;2024-01-10T02:32:55;12.25;;;4.30;;
26335;SDS011;14047;50.936;4.654;2024-01-10T02:35:20;11.32;;;4.63;;
26335;SDS011;14047;50.936;4.654;2024-01-10T02:37:48;9.00;;;4.35;;
26335;SDS011;14047;50.936;4.654;2024-01-10T02:40:18;11.40;;;4.68;;
26335;SDS011;14047;50.936;4.654;2024-01-10T02:42:44;10.85;;;4.80;;
26335;SDS011;14047;50.936;4.654;2024-01-10T02:45:09;10.15;;;4.18;;
26335;SDS011;14047;50.936;4.654;2024-01-10T02:47:35;10.82;;;4.45;;
26335;SDS011;14047;50.936;4.654;2024-01-10T02:50:04;10.38;;;4.80;;
26335;SDS011;14047;50.936;4.654;2024-01-10T02:52:31;12.45;;;4.70;;
26335;SDS011;14047;50.936;4.654;2024-01-10T02:54:57;11.00;;;4.15;;
26335;SDS011;14047;50.936;4.654;2024-01-10T02:57:23;8.40;;;4.28;;
26335;SDS011;14047;50.936;4.654;2024-01-10T02:59:49;9.75;;;4.18;;
26335;SDS011;14047;50.936;4.654;2024-01-10T03:02:15;8.63;;;4.00;;
26335;SDS011;14047;50.936;4.654;2024-01-10T03:04:41;12.60;;;5.10;;
26335;SDS011;14047;50.936;4.654;2024-01-10T03:07:07;9.70;;;4.15;;
26335;SDS011;14047;50.936;4.654;2024-01-10T03:09:33;13.90;;;4.60;;
26335;SDS011;14047;50.936;4.654;2024-01-10T03:11:59;12.45;;;5.45;;
26335;SDS011;14047;50.936;4.654;2024-01-10T03:14:25;11.10;;;4.63;;
26335;SDS011;14047;50.936;4.654;2024-01-10T03:16:51;10.32;;;4.53;;
26335;SDS011;14047;50.936;4.654;2024-01-10T03:19:16;9.77;;;4.50;;
26335;SDS011;14047;50.936;4.654;2024-01-10T03:21:42;16.25;;;4.93;;
26335;SDS011;14047;50.936;4.654;2024-01-10T03:24:08;11.27;;;4.40;;
26335;SDS011;14047;50.936;4.654;2024-01-10T03:26:34;12.48;;;5.07;;
26335;SDS011;14047;50.936;4.654;2024-01-10T03:29:00;10.00;;;4.07;;
26335;SDS011;14047;50.936;4.654;2024-01-10T03:31:27;10.98;;;4.78;;
26335;SDS011;14047;50.936;4.654;2024-01-10T03:33:56;9.88;;;4.35;;
26335;SDS011;14047;50.936;4.654;2024-01-10T03:36:23;8.95;;;4.35;;
26335;SDS011;14047;50.936;4.654;2024-01-10T03:38:52;10.23;;;4.88;;
26335;SDS011;14047;50.936;4.654;2024-01-10T03:41:18;10.00;;;4.45;;
26335;SDS011;14047;50.936;4.654;2024-01-10T03:43:45;9.52;;;4.93;;
26335;SDS011;14047;50.936;4.654;2024-01-10T03:46:12;13.10;;;5.32;;
26335;SDS011;14047;50.936;4.654;2024-01-10T03:48:39;9.73;;;4.40;;
26335;SDS011;14047;50.936;4.654;2024-01-10T03:51:13;10.50;;;4.35;;
26335;SDS011;14047;50.936;4.654;2024-01-10T03:53:43;11.23;;;4.60;;
26335;SDS011;14047;50.936;4.654;2024-01-10T03:56:09;13.32;;;5.57;;
26335;SDS011;14047;50.936;4.654;2024-01-10T03:58:36;15.98;;;5.25;;
26335;SDS011;14047;50.936;4.654;2024-01-10T04:01:06;8.43;;;4.43;;
26335;SDS011;14047;50.936;4.654;2024-01-10T04:03:33;12.38;;;4.75;;
26335;SDS011;14047;50.936;4.654;2024-01-10T04:06:00;11.30;;;5.22;;
26335;SDS011;14047;50.936;4.654;2024-01-10T04:08:26;14.73;;;5.32;;
26335;SDS011;14047;50.936;4.654;2024-01-10T04:10:52;13.52;;;4.65;;
26335;SDS011;14047;50.936;4.654;2024-01-10T04:13:18;13.98;;;5.10;;
26335;SDS011;14047;50.936;4.654;2024-01-10T04:15:44;12.27;;;4.43;;
26335;SDS011;14047;50.936;4.654;2024-01-10T04:18:10;8.95;;;4.25;;
26335;SDS011;14047;50.936;4.654;2024-01-10T04:20:36;9.65;;;4.85;;
26335;SDS011;14047;50.936;4.654;2024-01-10T04:23:02;10.50;;;4.43;;
26335;SDS011;14047;50.936;4.654;2024-01-10T04:25:28;12.35;;;5.05;;
26335;SDS011;14047;50.936;4.654;2024-01-10T04:27:54;11.82;;;4.68;;
26335;SDS011;14047;50.936;4.654;2024-01-10T04:30:20;9.25;;;4.38;;
26335;SDS011;14047;50.936;4.654;2024-01-10T04:32:46;12.52;;;4.65;;
26335;SDS011;14047;50.936;4.654;2024-01-10T04:35:12;11.02;;;4.93;;
26335;SDS011;14047;50.936;4.654;2024-01-10T04:37:38;10.88;;;5.15;;
26335;SDS011;14047;50.936;4.654;2024-01-10T04:40:05;9.43;;;5.07;;
26335;SDS011;14047;50.936;4.654;2024-01-10T04:42:31;16.80;;;5.53;;
26335;SDS011;14047;50.936;4.654;2024-01-10T04:44:57;9.52;;;4.65;;
26335;SDS011;14047;50.936;4.654;2024-01-10T04:47:23;14.65;;;5.13;;
26335;SDS011;14047;50.936;4.654;2024-01-10T04:49:49;12.02;;;4.63;;
26335;SDS011;14047;50.936;4.654;2024-01-10T04:52:15;12.40;;;5.57;;
26335;SDS011;14047;50.936;4.654;2024-01-10T04:54:40;7.13;;;4.28;;
26335;SDS011;14047;50.936;4.654;2024-01-10T04:57:06;10.93;;;4.97;;
26335;SDS011;14047;50.936;4.654;2024-01-10T04:59:35;9.38;;;4.57;;
26335;SDS011;14047;50.936;4.654;2024-01-10T05:02:01;9.13;;;5.07;;
26335;SDS011;14047;50.936;4.654;2024-01-10T05:04:27;11.80;;;4.95;;
26335;SDS011;14047;50.936;4.654;2024-01-10T05:06:53;11.13;;;5.65;;
26335;SDS011;14047;50.936;4.654;2024-01-10T05:09:18;15.30;;;5.30;;
26335;SDS011;14047;50.936;4.654;2024-01-10T05:11:44;9.77;;;3.88;;
26335;SDS011;14047;50.936;4.654;2024-01-10T05:14:16;7.97;;;3.92;;
26335;SDS011;14047;50.936;4.654;2024-01-10T05:16:45;11.23;;;5.10;;
26335;SDS011;14047;50.936;4.654;2024-01-10T05:19:12;11.52;;;4.75;;
26335;SDS011;14047;50.936;4.654;2024-01-10T05:21:38;12.48;;;5.40;;
26335;SDS011;14047;50.936;4.654;2024-01-10T05:24:05;8.88;;;4.60;;
26335;SDS011;14047;50.936;4.654;2024-01-10T05:26:31;12.40;;;4.63;;
26335;SDS011;14047;50.936;4.654;2024-01-10T05:28:57;12.60;;;5.55;;
26335;SDS011;14047;50.936;4.654;2024-01-10T05:31:23;12.73;;;4.78;;
26335;SDS011;14047;50.936;4.654;2024-01-10T05:33:49;13.63;;;5.57;;
26335;SDS011;14047;50.936;4.654;2024-01-10T05:36:15;9.50;;;3.97;;
26335;SDS011;14047;50.936;4.654;2024-01-10T05:38:40;15.10;;;5.22;;
26335;SDS011;14047;50.936;4.654;2024-01-10T05:41:06;18.02;;;5.15;;
26335;SDS011;14047;50.936;4.654;2024-01-10T05:43:32;16.77;;;4.88;;
26335;SDS011;14047;50.936;4.654;2024-01-10T05:45:59;11.25;;;4.30;;
26335;SDS011;14047;50.936;4.654;2024-01-10T05:48:25;11.38;;;5.65;;
26335;SDS011;14047;50.936;4.654;2024-01-10T05:50:51;14.48;;;5.75;;
26335;SDS011;14047;50.936;4.654;2024-01-10T05:53:17;11.52;;;5.55;;
26335;SDS011;14047;50.936;4.654;2024-01-10T05:55:43;10.02;;;4.80;;
26335;SDS011;14047;50.936;4.654;2024-01-10T05:58:09;10.88;;;4.43;;
26335;SDS011;14047;50.936;4.654;2024-01-10T06:00:36;11.57;;;4.18;;
26335;SDS011;14047;50.936;4.654;2024-01-10T06:03:02;10.25;;;4.63;;
26335;SDS011;14047;50.936;4.654;2024-01-10T06:05:28;15.15;;;4.32;;
26335;SDS011;14047;50.936;4.654;2024-01-10T06:07:54;9.77;;;4.68;;
26335;SDS011;14047;50.936;4.654;2024-01-10T06:10:20;11.93;;;4.05;;
26335;SDS011;14047;50.936;4.654;2024-01-10T06:12:46;9.55;;;4.53;;
26335;SDS011;14047;50.936;4.654;2024-01-10T06:15:12;9.77;;;5.35;;
26335;SDS011;14047;50.936;4.654;2024-01-10T06:17:38;9.38;;;4.03;;
26335;SDS011;14047;50.936;4.654;2024-01-10T06:20:04;8.98;;;4.15;;
26335;SDS011;14047;50.936;4.654;2024-01-10T06:22:32;12.27;;;4.85;;
26335;SDS011;14047;50.936;4.654;2024-01-10T06:24:58;6.03;;;4.30;;
26335;SDS011;14047;50.936;4.654;2024-01-10T06:27:24;11.70;;;4.20;;
26335;SDS011;14047;50.936;4.654;2024-01-10T06:29:50;8.82;;;4.68;;
26335;SDS011;14047;50.936;4.654;2024-01-10T06:32:16;11.98;;;4.88;;
26335;SDS011;14047;50.936;4.654;2024-01-10T06:34:41;8.02;;;4.72;;
26335;SDS011;14047;50.936;4.654;2024-01-10T06:37:08;8.23;;;4.63;;
26335;SDS011;14047;50.936;4.654;2024-01-10T06:39:34;10.32;;;4.60;;
26335;SDS011;14047;50.936;4.654;2024-01-10T06:42:00;9.63;;;3.97;;
26335;SDS011;14047;50.936;4.654;2024-01-10T06:44:25;14.32;;;5.65;;
26335;SDS011;14047;50.936;4.654;2024-01-10T06:46:53;11.30;;;5.07;;
26335;SDS011;14047;50.936;4.654;2024-01-10T06:49:19;14.02;;;4.47;;
26335;SDS011;14047;50.936;4.654;2024-01-10T06:51:46;9.45;;;4.72;;
26335;SDS011;14047;50.936;4.654;2024-01-10T06:54:12;16.60;;;5.45;;
26335;SDS011;14047;50.936;4.654;2024-01-10T06:56:39;17.90;;;5.18;;
26335;SDS011;14047;50.936;4.654;2024-01-10T06:59:04;14.32;;;5.72;;
26335;SDS011;14047;50.936;4.654;2024-01-10T07:01:30;7.47;;;4.72;;
26335;SDS011;14047;50.936;4.654;2024-01-10T07:03:56;11.18;;;4.22;;
26335;SDS011;14047;50.936;4.654;2024-01-10T07:06:22;12.15;;;5.60;;
26335;SDS011;14047;50.936;4.654;2024-01-10T07:08:49;14.77;;;5.68;;
26335;SDS011;14047;50.936;4.654;2024-01-10T07:11:16;8.18;;;3.58;;
26335;SDS011;14047;50.936;4.654;2024-01-10T07:13:43;10.85;;;4.82;;
26335;SDS011;14047;50.936;4.654;2024-01-10T07:16:09;9.98;;;3.65;;
26335;SDS011;14047;50.936;4.654;2024-01-10T07:18:35;11.25;;;5.38;;
26335;SDS011;14047;50.936;4.654;2024-01-10T07:21:01;9.55;;;4.75;;
26335;SDS011;14047;50.936;4.654;2024-01-10T07:23:27;9.88;;;4.38;;
26335;SDS011;14047;50.936;4.654;2024-01-10T07:25:53;12.68;;;4.75;;
26335;SDS011;14047;50.936;4.654;2024-01-10T07:28:19;6.03;;;3.67;;
26335;SDS011;14047;50.936;4.654;2024-01-10T07:30:45;15.05;;;4.00;;
26335;SDS011;14047;50.936;4.654;2024-01-10T07:33:11;13.45;;;4.07;;
26335;SDS011;14047;50.936;4.654;2024-01-10T07:35:38;13.20;;;4.88;;
26335;SDS011;14047;50.936;4.654;2024-01-10T07:38:04;9.88;;;4.97;;
26335;SDS011;14047;50.936;4.654;2024-01-10T07:40:34;8.18;;;3.70;;
26335;SDS011;14047;50.936;4.654;2024-01-10T07:43:00;12.15;;;4.63;;
26335;SDS011;14047;50.936;4.654;2024-01-10T07:45:26;10.13;;;4.15;;
26335;SDS011;14047;50.936;4.654;2024-01-10T07:47:52;14.90;;;4.97;;
26335;SDS011;14047;50.936;4.654;2024-01-10T07:50:19;5.72;;;3.08;;
26335;SDS011;14047;50.936;4.654;2024-01-10T07:52:45;10.95;;;5.03;;
26335;SDS011;14047;50.936;4.654;2024-01-10T07:55:13;10.77;;;4.82;;
26335;SDS011;14047;50.936;4.654;2024-01-10T07:57:39;14.23;;;4.68;;
26335;SDS011;14047;50.936;4.654;2024-01-10T08:00:07;8.88;;;3.85;;
26335;SDS011;14047;50.936;4.654;2024-01-10T08:02:39;11.60;;;4.45;;
26335;SDS011;14047;50.936;4.654;2024-01-10T08:05:06;11.45;;;4.80;;
26335;SDS011;14047;50.936;4.654;2024-01-10T08:07:36;11.77;;;5.22;;
26335;SDS011;14047;50.936;4.654;2024-01-10T08:10:04;8.70;;;4.53;;
26335;SDS011;14047;50.936;4.654;2024-01-10T08:12:37;7.90;;;4.18;;
26335;SDS011;14047;50.936;4.654;2024-01-10T08:15:06;13.82;;;5.35;;
26335;SDS011;14047;50.936;4.654;2024-01-10T08:17:33;10.45;;;4.97;;
26335;SDS011;14047;50.936;4.654;2024-01-10T08:19:59;11.15;;;5.25;;
26335;SDS011;14047;50.936;4.654;2024-01-10T08:22:26;14.05;;;5.72;;
26335;SDS011;14047;50.936;4.654;2024-01-10T08:24:52;10.52;;;5.03;;
26335;SDS011;14047;50.936;4.654;2024-01-10T08:27:18;15.07;;;6.90;;
26335;SDS011;14047;50.936;4.654;2024-01-10T08:29:44;12.20;;;4.70;;
26335;SDS011;14047;50.936;4.654;2024-01-10T08:32:10;11.27;;;4.47;;
26335;SDS011;14047;50.936;4.654;2024-01-10T08:34:36;11.63;;;5.13;;
26335;SDS011;14047;50.936;4.654;2024-01-10T08:37:02;15.20;;;6.10;;
26335;SDS011;14047;50.936;4.654;2024-01-10T08:39:30;14.32;;;5.13;;
26335;SDS011;14047;50.936;4.654;2024-01-10T08:41:57;11.90;;;5.50;;
26335;SDS011;14047;50.936;4.654;2024-01-10T08:44:23;12.68;;;5.47;;
26335;SDS011;14047;50.936;4.654;2024-01-10T08:46:49;18.40;;;5.78;;
26335;SDS011;14047;50.936;4.654;2024-01-10T08:49:16;15.77;;;5.85;;
26335;SDS011;14047;50.936;4.654;2024-01-10T08:51:43;13.52;;;5.95;;
26335;SDS011;14047;50.936;4.654;2024-01-10T08:54:10;12.15;;;5.80;;
26335;SDS011;14047;50.936;4.654;2024-01-10T08:56:38;15.68;;;6.65;;
26335;SDS011;14047;50.936;4.654;2024-01-10T08:59:03;14.40;;;6.30;;
26335;SDS011;14047;50.936;4.654;2024-01-10T09:01:29;16.80;;;6.85;;
26335;SDS011;14047;50.936;4.654;2024-01-10T09:03:56;17.65;;;6.80;;
26335;SDS011;14047;50.936;4.654;2024-01-10T09:06:21;18.60;;;6.63;;
26335;SDS011;14047;50.936;4.654;2024-01-10T09:08:47;16.08;;;5.78;;
26335;SDS011;14047;50.936;4.654;2024-01-10T09:11:13;19.08;;;6.13;;
26335;SDS011;14047;50.936;4.654;2024-01-10T09:13:39;15.45;;;7.30;;
26335;SDS011;14047;50.936;4.654;2024-01-10T09:16:05;15.25;;;6.20;;
26335;SDS011;14047;50.936;4.654;2024-01-10T09:18:31;14.68;;;6.95;;
26335;SDS011;14047;50.936;4.654;2024-01-10T09:20:57;10.98;;;5.63;;
26335;SDS011;14047;50.936;4.654;2024-01-10T09:23:23;17.55;;;6.28;;
26335;SDS011;14047;50.936;4.654;2024-01-10T09:25:49;16.80;;;6.40;;
26335;SDS011;14047;50.936;4.654;2024-01-10T09:28:15;14.38;;;5.53;;
26335;SDS011;14047;50.936;4.654;2024-01-10T09:30:41;15.02;;;5.72;;
26335;SDS011;14047;50.936;4.654;2024-01-10T09:33:07;14.60;;;5.75;;
26335;SDS011;14047;50.936;4.654;2024-01-10T09:35:32;12.30;;;5.75;;
26335;SDS011;14047;50.936;4.654;2024-01-10T09:37:58;16.25;;;5.63;;
26335;SDS011;14047;50.936;4.654;2024-01-10T09:40:25;13.40;;;5.88;;
26335;SDS011;14047;50.936;4.654;2024-01-10T09:42:54;18.17;;;6.80;;
26335;SDS011;14047;50.936;4.654;2024-01-10T09:45:20;15.07;;;6.35;;
26335;SDS011;14047;50.936;4.654;2024-01-10T09:47:49;14.05;;;5.82;;
26335;SDS011;14047;50.936;4.654;2024-01-10T09:50:17;16.92;;;6.30;;
26335;SDS011;14047;50.936;4.654;2024-01-10T09:52:53;17.90;;;6.90;;
26335;SDS011;14047;50.936;4.654;2024-01-10T09:55:26;15.27;;;5.63;;
26335;SDS011;14047;50.936;4.654;2024-01-10T09:57:58;16.38;;;6.15;;
26335;SDS011;14047;50.936;4.654;2024-01-10T10:00:36;10.07;;;5.18;;
26335;SDS011;14047;50.936;4.654;2024-01-10T10:03:07;20.67;;;6.97;;
26335;SDS011;14047;50.936;4.654;2024-01-10T10:05:36;17.02;;;6.63;;
26335;SDS011;14047;50.936;4.654;2024-01-10T10:08:02;12.93;;;5.93;;
26335;SDS011;14047;50.936;4.654;2024-01-10T10:10:31;13.85;;;6.10;;
26335;SDS011;14047;50.936;4.654;2024-01-10T10:12:58;13.45;;;5.90;;
26335;SDS011;14047;50.936;4.654;2024-01-10T10:15:24;12.35;;;6.25;;
26335;SDS011;14047;50.936;4.654;2024-01-10T10:17:53;18.35;;;6.63;;
26335;SDS011;14047;50.936;4.654;2024-01-10T10:20:21;16.70;;;5.43;;
26335;SDS011;14047;50.936;4.654;2024-01-10T10:23:06;12.20;;;4.97;;
26335;SDS011;14047;50.936;4.654;2024-01-10T10:25:44;11.43;;;5.93;;
26335;SDS011;14047;50.936;4.654;2024-01-10T10:28:12;13.15;;;5.10;;
26335;SDS011;14047;50.936;4.654;2024-01-10T10:30:38;19.75;;;6.45;;
26335;SDS011;14047;50.936;4.654;2024-01-10T10:33:05;12.82;;;5.32;;
26335;SDS011;14047;50.936;4.654;2024-01-10T10:35:33;14.30;;;6.20;;
26335;SDS011;14047;50.936;4.654;2024-01-10T10:37:59;10.90;;;5.20;;
26335;SDS011;14047;50.936;4.654;2024-01-10T10:40:25;16.63;;;6.72;;
26335;SDS011;14047;50.936;4.654;2024-01-10T10:42:55;13.38;;;6.28;;
26335;SDS011;14047;50.936;4.654;2024-01-10T10:45:24;11.25;;;5.15;;
26335;SDS011;14047;50.936;4.654;2024-01-10T10:47:56;12.07;;;5.22;;
26335;SDS011;14047;50.936;4.654;2024-01-10T10:50:23;11.02;;;5.82;;
26335;SDS011;14047;50.936;4.654;2024-01-10T10:52:51;15.10;;;6.55;;
26335;SDS011;14047;50.936;4.654;2024-01-10T10:55:18;16.30;;;7.18;;
26335;SDS011;14047;50.936;4.654;2024-01-10T10:57:44;19.33;;;7.10;;
26335;SDS011;14047;50.936;4.654;2024-01-10T11:00:12;28.77;;;7.78;;
26335;SDS011;14047;50.936;4.654;2024-01-10T11:02:41;13.75;;;6.00;;
26335;SDS011;14047;50.936;4.654;2024-01-10T11:05:08;20.27;;;7.85;;
26335;SDS011;14047;50.936;4.654;2024-01-10T11:07:52;15.80;;;6.80;;
26335;SDS011;14047;50.936;4.654;2024-01-10T11:10:21;13.95;;;6.15;;
26335;SDS011;14047;50.936;4.654;2024-01-10T11:13:02;16.73;;;7.05;;
26335;SDS011;14047;50.936;4.654;2024-01-10T11:18:40;21.00;;;7.95;;
26335;SDS011;14047;50.936;4.654;2024-01-10T11:21:17;17.95;;;6.90;;
26335;SDS011;14047;50.936;4.654;2024-01-10T11:23:54;13.30;;;5.60;;
26335;SDS011;14047;50.936;4.654;2024-01-10T11:26:24;17.42;;;6.95;;
26335;SDS011;14047;50.936;4.654;2024-01-10T11:28:50;17.80;;;6.68;;
26335;SDS011;14047;50.936;4.654;2024-01-10T11:31:26;13.25;;;6.00;;
26335;SDS011;14047;50.936;4.654;2024-01-10T11:33:57;22.83;;;7.15;;
26335;SDS011;14047;50.936;4.654;2024-01-10T11:36:23;17.50;;;7.35;;
26335;SDS011;14047;50.936;4.654;2024-01-10T11:46:34;15.82;;;6.80;;
26335;SDS011;14047;50.936;4.654;2024-01-10T11:49:00;15.20;;;6.82;;
26335;SDS011;14047;50.936;4.654;2024-01-10T11:51:26;19.55;;;7.35;;
26335;SDS011;14047;50.936;4.654;2024-01-10T11:53:52;15.68;;;5.32;;
26335;SDS011;14047;50.936;4.654;2024-01-10T11:56:19;15.23;;;6.95;;
26335;SDS011;14047;50.936;4.654;2024-01-10T11:58:54;17.05;;;8.02;;
26335;SDS011;14047;50.936;4.654;2024-01-10T12:01:26;18.08;;;6.55;;
26335;SDS011;14047;50.936;4.654;2024-01-10T12:03:53;15.48;;;6.22;;
26335;SDS011;14047;50.936;4.654;2024-01-10T12:06:20;17.58;;;6.90;;
26335;SDS011;14047;50.936;4.654;2024-01-10T12:08:47;13.35;;;5.95;;
26335;SDS011;14047;50.936;4.654;2024-01-10T12:11:14;18.45;;;7.43;;
26335;SDS011;14047;50.936;4.654;2024-01-10T12:13:41;15.05;;;6.05;;
26335;SDS011;14047;50.936;4.654;2024-01-10T12:16:07;17.08;;;7.13;;
26335;SDS011;14047;50.936;4.654;2024-01-10T12:18:33;20.13;;;7.32;;
26335;SDS011;14047;50.936;4.654;2024-01-10T12:20:59;15.13;;;5.50;;
26335;SDS011;14047;50.936;4.654;2024-01-10T12:23:25;15.48;;;5.70;;
26335;SDS011;14047;50.936;4.654;2024-01-10T12:25:57;13.73;;;7.22;;
26335;SDS011;14047;50.936;4.654;2024-01-10T12:28:26;20.20;;;7.97;;
26335;SDS011;14047;50.936;4.654;2024-01-10T12:30:52;18.60;;;6.72;;
26335;SDS011;14047;50.936;4.654;2024-01-10T12:33:21;17.55;;;6.88;;
26335;SDS011;14047;50.936;4.654;2024-01-10T12:36:01;18.20;;;7.65;;
26335;SDS011;14047;50.936;4.654;2024-01-10T12:38:35;17.10;;;7.88;;
26335;SDS011;14047;50.936;4.654;2024-01-10T12:41:02;23.70;;;7.70;;
26335;SDS011;14047;50.936;4.654;2024-01-10T12:43:29;15.63;;;7.07;;
26335;SDS011;14047;50.936;4.654;2024-01-10T12:46:02;14.65;;;7.28;;
26335;SDS011;14047;50.936;4.654;2024-01-10T12:48:29;18.95;;;8.18;;
26335;SDS011;14047;50.936;4.654;2024-01-10T12:50:54;16.80;;;8.23;;
26335;SDS011;14047;50.936;4.654;2024-01-10T12:53:20;17.90;;;6.80;;
26335;SDS011;14047;50.936;4.654;2024-01-10T12:55:46;17.48;;;7.78;;
26335;SDS011;14047;50.936;4.654;2024-01-10T12:58:12;21.00;;;6.93;;
26335;SDS011;14047;50.936;4.654;2024-01-10T13:00:38;17.10;;;7.10;;
26335;SDS011;14047;50.936;4.654;2024-01-10T13:03:05;18.55;;;7.57;;
26335;SDS011;14047;50.936;4.654;2024-01-10T13:05:31;21.65;;;7.82;;
26335;SDS011;14047;50.936;4.654;2024-01-10T13:07:57;20.30;;;7.78;;
26335;SDS011;14047;50.936;4.654;2024-01-10T13:10:23;20.58;;;7.80;;
26335;SDS011;14047;50.936;4.654;2024-01-10T13:12:49;20.00;;;7.18;;
26335;SDS011;14047;50.936;4.654;2024-01-10T13:15:15;18.63;;;7.38;;
26335;SDS011;14047;50.936;4.654;2024-01-10T13:17:41;17.95;;;8.13;;
26335;SDS011;14047;50.936;4.654;2024-01-10T13:20:07;17.13;;;7.88;;
26335;SDS011;14047;50.936;4.654;2024-01-10T13:22:35;19.27;;;8.13;;
26335;SDS011;14047;50.936;4.654;2024-01-10T13:25:00;16.13;;;8.35;;
26335;SDS011;14047;50.936;4.654;2024-01-10T13:27:27;22.52;;;8.57;;
26335;SDS011;14047;50.936;4.654;2024-01-10T13:29:53;17.75;;;7.75;;
26335;SDS011;14047;50.936;4.654;2024-01-10T13:32:19;17.98;;;7.57;;
26335;SDS011;14047;50.936;4.654;2024-01-10T13:34:45;20.25;;;8.15;;
26335;SDS011;14047;50.936;4.654;2024-01-10T13:37:11;16.58;;;6.88;;
26335;SDS011;14047;50.936;4.654;2024-01-10T13:39:38;14.88;;;6.75;;
26335;SDS011;14047;50.936;4.654;2024-01-10T13:42:06;16.05;;;7.65;;
26335;SDS011;14047;50.936;4.654;2024-01-10T13:44:32;16.85;;;7.43;;
26335;SDS011;14047;50.936;4.654;2024-01-10T13:46:57;19.67;;;7.60;;
26335;SDS011;14047;50.936;4.654;2024-01-10T13:49:23;19.98;;;8.68;;
26335;SDS011;14047;50.936;4.654;2024-01-10T13:51:49;17.30;;;7.35;;
26335;SDS011;14047;50.936;4.654;2024-01-10T13:54:15;20.45;;;8.40;;
26335;SDS011;14047;50.936;4.654;2024-01-10T13:56:41;20.17;;;8.38;;
26335;SDS011;14047;50.936;4.654;2024-01-10T13:59:07;20.35;;;7.82;;
26335;SDS011;14047;50.936;4.654;2024-01-10T14:01:33;17.60;;;8.10;;
26335;SDS011;14047;50.936;4.654;2024-01-10T14:03:59;15.38;;;7.72;;
26335;SDS011;14047;50.936;4.654;2024-01-10T14:06:25;26.52;;;7.75;;
26335;SDS011;14047;50.936;4.654;2024-01-10T14:08:50;14.20;;;7.35;;
26335;SDS011;14047;50.936;4.654;2024-01-10T14:11:19;16.48;;;7.95;;
26335;SDS011;14047;50.936;4.654;2024-01-10T14:13:45;18.60;;;8.68;;
26335;SDS011;14047;50.936;4.654;2024-01-10T14:16:11;19.35;;;8.45;;
26335;SDS011;14047;50.936;4.654;2024-01-10T14:18:36;19.05;;;8.55;;
26335;SDS011;14047;50.936;4.654;2024-01-10T14:21:03;16.10;;;7.82;;
26335;SDS011;14047;50.936;4.654;2024-01-10T14:23:30;18.00;;;7.50;;
26335;SDS011;14047;50.936;4.654;2024-01-10T14:25:56;16.58;;;8.00;;
26335;SDS011;14047;50.936;4.654;2024-01-10T14:28:22;20.25;;;8.23;;
26335;SDS011;14047;50.936;4.654;2024-01-10T14:30:48;21.88;;;8.88;;
26335;SDS011;14047;50.936;4.654;2024-01-10T14:33:14;30.13;;;8.55;;
26335;SDS011;14047;50.936;4.654;2024-01-10T14:35:40;19.13;;;7.35;;
26335;SDS011;14047;50.936;4.654;2024-01-10T14:38:06;20.73;;;8.93;;
26335;SDS011;14047;50.936;4.654;2024-01-10T14:40:33;20.38;;;8.27;;
26335;SDS011;14047;50.936;4.654;2024-01-10T14:42:59;18.25;;;7.85;;
26335;SDS011;14047;50.936;4.654;2024-01-10T14:45:25;18.50;;;8.80;;